sensor_id;sensor_type;location;lat;lon;timestamp;P1;durP1;ratioP1;P2;durP2;ratioP2
20482;SDS011;10400;53.198;6.592;2022-12-29T00:00:03;5.15;;;3.60;;
20482;SDS011;10400;53.198;6.592;2022-12-29T00:02:30;3.92;;;3.50;;
20482;SDS011;10400;53.198;6.592;2022-12-29T00:04:55;5.78;;;3.70;;
20482;SDS011;10400;53.198;6.592;2022-12-29T00:07:21;4.22;;;3.65;;
20482;SDS011;10400;53.198;6.592;2022-12-29T00:09:46;3.90;;;3.25;;
20482;SDS011;10400;53.198;6.592;2022-12-29T00:12:12;4.10;;;3.30;;
20482;SDS011;10400;53.198;6.592;2022-12-29T00:14:38;4.00;;;3.47;;
20482;SDS011;10400;53.198;6.592;2022-12-29T00:17:22;6.20;;;3.40;;
20482;SDS011;10400;53.198;6.592;2022-12-29T00:19:47;4.13;;;3.72;;
20482;SDS011;10400;53.198;6.592;2022-12-29T00:22:31;3.95;;;3.60;;
20482;SDS011;10400;53.198;6.592;2022-12-29T00:25:15;4.38;;;3.40;;
20482;SDS011;10400;53.198;6.592;2022-12-29T00:28:00;4.05;;;3.35;;
20482;SDS011;10400;53.198;6.592;2022-12-29T00:30:44;4.43;;;3.60;;
20482;SDS011;10400;53.198;6.592;2022-12-29T00:33:29;5.15;;;4.10;;
20482;SDS011;10400;53.198;6.592;2022-12-29T00:36:31;3.58;;;3.28;;
20482;SDS011;10400;53.198;6.592;2022-12-29T00:39:05;3.55;;;3.25;;
20482;SDS011;10400;53.198;6.592;2022-12-29T00:41:55;4.05;;;3.65;;
20482;SDS011;10400;53.198;6.592;2022-12-29T00:44:39;3.85;;;3.35;;
20482;SDS011;10400;53.198;6.592;2022-12-29T00:47:05;4.50;;;4.03;;
20482;SDS011;10400;53.198;6.592;2022-12-29T00:49:31;5.18;;;4.00;;
20482;SDS011;10400;53.198;6.592;2022-12-29T00:52:01;4.10;;;3.70;;
20482;SDS011;10400;53.198;6.592;2022-12-29T00:54:30;3.47;;;3.17;;
20482;SDS011;10400;53.198;6.592;2022-12-29T00:56:58;4.20;;;3.40;;
20482;SDS011;10400;53.198;6.592;2022-12-29T00:59:24;3.83;;;3.45;;
20482;SDS011;10400;53.198;6.592;2022-12-29T01:01:50;3.92;;;3.20;;
20482;SDS011;10400;53.198;6.592;2022-12-29T01:04:17;4.90;;;2.83;;
20482;SDS011;10400;53.198;6.592;2022-12-29T01:06:43;4.45;;;3.40;;
20482;SDS011;10400;53.198;6.592;2022-12-29T01:09:09;3.58;;;3.25;;
20482;SDS011;10400;53.198;6.592;2022-12-29T01:11:53;3.70;;;3.40;;
20482;SDS011;10400;53.198;6.592;2022-12-29T01:14:20;3.97;;;3.42;;
20482;SDS011;10400;53.198;6.592;2022-12-29T01:16:46;3.75;;;3.42;;
20482;SDS011;10400;53.198;6.592;2022-12-29T01:19:13;4.10;;;3.70;;
20482;SDS011;10400;53.198;6.592;2022-12-29T01:21:39;4.32;;;3.33;;
20482;SDS011;10400;53.198;6.592;2022-12-29T01:24:05;3.90;;;3.35;;
20482;SDS011;10400;53.198;6.592;2022-12-29T01:26:31;4.55;;;3.55;;
20482;SDS011;10400;53.198;6.592;2022-12-29T01:28:56;4.32;;;3.22;;
20482;SDS011;10400;53.198;6.592;2022-12-29T01:31:22;7.07;;;3.33;;
20482;SDS011;10400;53.198;6.592;2022-12-29T01:33:48;5.25;;;3.80;;
20482;SDS011;10400;53.198;6.592;2022-12-29T01:36:14;4.30;;;3.58;;
20482;SDS011;10400;53.198;6.592;2022-12-29T01:38:41;4.97;;;3.35;;
20482;SDS011;10400;53.198;6.592;2022-12-29T01:41:07;8.52;;;3.75;;
20482;SDS011;10400;53.198;6.592;2022-12-29T01:43:45;4.97;;;3.50;;
20482;SDS011;10400;53.198;6.592;2022-12-29T01:46:19;5.07;;;3.10;;
20482;SDS011;10400;53.198;6.592;2022-12-29T01:49:36;5.03;;;3.60;;
20482;SDS011;10400;53.198;6.592;2022-12-29T01:51:45;4.90;;;3.60;;
20482;SDS011;10400;53.198;6.592;2022-12-29T01:54:16;3.90;;;3.33;;
20482;SDS011;10400;53.198;6.592;2022-12-29T01:56:50;7.78;;;3.92;;
20482;SDS011;10400;53.198;6.592;2022-12-29T01:59:19;4.60;;;3.83;;
20482;SDS011;10400;53.198;6.592;2022-12-29T02:01:48;4.75;;;3.80;;
20482;SDS011;10400;53.198;6.592;2022-12-29T02:04:14;4.13;;;3.80;;
20482;SDS011;10400;53.198;6.592;2022-12-29T02:06:48;4.50;;;3.60;;
20482;SDS011;10400;53.198;6.592;2022-12-29T02:09:18;3.88;;;3.58;;
20482;SDS011;10400;53.198;6.592;2022-12-29T02:11:44;4.43;;;3.30;;
20482;SDS011;10400;53.198;6.592;2022-12-29T02:14:10;4.10;;;3.58;;
20482;SDS011;10400;53.198;6.592;2022-12-29T02:16:40;4.78;;;3.30;;
20482;SDS011;10400;53.198;6.592;2022-12-29T02:22:27;3.50;;;3.20;;
20482;SDS011;10400;53.198;6.592;2022-12-29T02:36:42;4.90;;;2.83;;
20482;SDS011;10400;53.198;6.592;2022-12-29T02:47:23;2.72;;;2.35;;
20482;SDS011;10400;53.198;6.592;2022-12-29T02:52:31;4.05;;;2.70;;
20482;SDS011;10400;53.198;6.592;2022-12-29T02:55:02;3.15;;;2.50;;
20482;SDS011;10400;53.198;6.592;2022-12-29T02:57:30;3.40;;;2.50;;
20482;SDS011;10400;53.198;6.592;2022-12-29T03:00:04;3.13;;;2.38;;
20482;SDS011;10400;53.198;6.592;2022-12-29T03:05:41;5.38;;;2.35;;
20482;SDS011;10400;53.198;6.592;2022-12-29T03:08:48;3.97;;;2.53;;
20482;SDS011;10400;53.198;6.592;2022-12-29T03:11:20;3.63;;;2.20;;
20482;SDS011;10400;53.198;6.592;2022-12-29T03:14:29;5.50;;;2.10;;
20482;SDS011;10400;53.198;6.592;2022-12-29T03:17:24;2.22;;;1.67;;
20482;SDS011;10400;53.198;6.592;2022-12-29T03:19:58;4.28;;;2.00;;
20482;SDS011;10400;53.198;6.592;2022-12-29T03:22:29;2.78;;;1.58;;
20482;SDS011;10400;53.198;6.592;2022-12-29T03:25:01;2.08;;;1.63;;
20482;SDS011;10400;53.198;6.592;2022-12-29T03:27:32;1.98;;;1.60;;
20482;SDS011;10400;53.198;6.592;2022-12-29T03:30:03;3.17;;;1.60;;
20482;SDS011;10400;53.198;6.592;2022-12-29T03:32:32;2.20;;;1.52;;
20482;SDS011;10400;53.198;6.592;2022-12-29T03:35:10;3.50;;;1.50;;
20482;SDS011;10400;53.198;6.592;2022-12-29T03:37:41;2.72;;;1.33;;
20482;SDS011;10400;53.198;6.592;2022-12-29T03:40:09;2.25;;;1.40;;
20482;SDS011;10400;53.198;6.592;2022-12-29T03:42:35;3.25;;;1.30;;
20482;SDS011;10400;53.198;6.592;2022-12-29T03:45:03;4.53;;;1.52;;
20482;SDS011;10400;53.198;6.592;2022-12-29T03:47:30;3.08;;;1.45;;
20482;SDS011;10400;53.198;6.592;2022-12-29T03:49:55;3.10;;;1.33;;
20482;SDS011;10400;53.198;6.592;2022-12-29T03:52:21;3.55;;;1.25;;
20482;SDS011;10400;53.198;6.592;2022-12-29T03:54:47;2.85;;;0.98;;
20482;SDS011;10400;53.198;6.592;2022-12-29T03:57:12;5.68;;;1.80;;
20482;SDS011;10400;53.198;6.592;2022-12-29T03:59:38;3.50;;;1.48;;
20482;SDS011;10400;53.198;6.592;2022-12-29T04:02:04;2.40;;;1.30;;
20482;SDS011;10400;53.198;6.592;2022-12-29T04:04:29;4.55;;;1.50;;
20482;SDS011;10400;53.198;6.592;2022-12-29T04:06:55;4.47;;;1.35;;
20482;SDS011;10400;53.198;6.592;2022-12-29T04:09:20;5.65;;;1.33;;
20482;SDS011;10400;53.198;6.592;2022-12-29T04:11:46;2.47;;;1.35;;
20482;SDS011;10400;53.198;6.592;2022-12-29T04:14:12;3.97;;;1.30;;
20482;SDS011;10400;53.198;6.592;2022-12-29T04:16:37;3.35;;;1.50;;
20482;SDS011;10400;53.198;6.592;2022-12-29T04:19:04;2.45;;;1.27;;
20482;SDS011;10400;53.198;6.592;2022-12-29T04:21:30;3.03;;;1.10;;
20482;SDS011;10400;53.198;6.592;2022-12-29T04:23:56;5.15;;;1.17;;
20482;SDS011;10400;53.198;6.592;2022-12-29T04:26:22;2.55;;;1.20;;
20482;SDS011;10400;53.198;6.592;2022-12-29T04:28:47;3.95;;;1.40;;
20482;SDS011;10400;53.198;6.592;2022-12-29T04:31:13;3.13;;;1.17;;
20482;SDS011;10400;53.198;6.592;2022-12-29T04:33:39;7.13;;;1.52;;
20482;SDS011;10400;53.198;6.592;2022-12-29T04:36:04;3.33;;;1.15;;
20482;SDS011;10400;53.198;6.592;2022-12-29T04:38:30;2.75;;;1.15;;
20482;SDS011;10400;53.198;6.592;2022-12-29T04:40:58;4.03;;;1.00;;
20482;SDS011;10400;53.198;6.592;2022-12-29T04:43:24;7.40;;;1.20;;
20482;SDS011;10400;53.198;6.592;2022-12-29T04:45:50;6.22;;;1.02;;
20482;SDS011;10400;53.198;6.592;2022-12-29T04:48:16;5.53;;;1.10;;
20482;SDS011;10400;53.198;6.592;2022-12-29T04:50:41;4.57;;;1.13;;
20482;SDS011;10400;53.198;6.592;2022-12-29T04:53:07;4.53;;;0.90;;
20482;SDS011;10400;53.198;6.592;2022-12-29T04:55:33;3.53;;;0.95;;
20482;SDS011;10400;53.198;6.592;2022-12-29T04:57:59;7.50;;;1.15;;
20482;SDS011;10400;53.198;6.592;2022-12-29T05:00:25;5.45;;;1.15;;
20482;SDS011;10400;53.198;6.592;2022-12-29T05:02:50;6.53;;;1.52;;
20482;SDS011;10400;53.198;6.592;2022-12-29T05:05:16;7.97;;;1.52;;
20482;SDS011;10400;53.198;6.592;2022-12-29T05:07:42;5.45;;;1.38;;
20482;SDS011;10400;53.198;6.592;2022-12-29T05:10:07;6.93;;;1.95;;
20482;SDS011;10400;53.198;6.592;2022-12-29T05:12:34;7.53;;;1.35;;
20482;SDS011;10400;53.198;6.592;2022-12-29T05:15:01;6.57;;;1.80;;
20482;SDS011;10400;53.198;6.592;2022-12-29T05:17:28;10.80;;;1.52;;
20482;SDS011;10400;53.198;6.592;2022-12-29T05:19:54;7.90;;;1.73;;
20482;SDS011;10400;53.198;6.592;2022-12-29T05:22:19;5.20;;;1.25;;
20482;SDS011;10400;53.198;6.592;2022-12-29T05:24:45;10.75;;;1.50;;
20482;SDS011;10400;53.198;6.592;2022-12-29T05:27:11;6.95;;;1.33;;
20482;SDS011;10400;53.198;6.592;2022-12-29T05:29:37;5.45;;;1.55;;
20482;SDS011;10400;53.198;6.592;2022-12-29T05:32:02;9.00;;;1.33;;
20482;SDS011;10400;53.198;6.592;2022-12-29T05:34:28;7.95;;;1.63;;
20482;SDS011;10400;53.198;6.592;2022-12-29T05:36:54;13.18;;;2.22;;
20482;SDS011;10400;53.198;6.592;2022-12-29T05:39:20;9.48;;;1.65;;
20482;SDS011;10400;53.198;6.592;2022-12-29T05:41:45;7.03;;;1.40;;
20482;SDS011;10400;53.198;6.592;2022-12-29T05:44:12;9.85;;;1.40;;
20482;SDS011;10400;53.198;6.592;2022-12-29T05:46:38;5.22;;;1.35;;
20482;SDS011;10400;53.198;6.592;2022-12-29T05:49:04;10.98;;;1.88;;
20482;SDS011;10400;53.198;6.592;2022-12-29T05:51:30;8.55;;;1.70;;
20482;SDS011;10400;53.198;6.592;2022-12-29T05:53:56;9.32;;;1.85;;
20482;SDS011;10400;53.198;6.592;2022-12-29T05:56:21;7.57;;;1.60;;
20482;SDS011;10400;53.198;6.592;2022-12-29T05:58:47;7.53;;;1.98;;
20482;SDS011;10400;53.198;6.592;2022-12-29T06:01:13;8.60;;;1.80;;
20482;SDS011;10400;53.198;6.592;2022-12-29T06:03:38;6.78;;;2.08;;
20482;SDS011;10400;53.198;6.592;2022-12-29T06:06:04;9.50;;;1.67;;
20482;SDS011;10400;53.198;6.592;2022-12-29T06:08:30;8.13;;;1.88;;
20482;SDS011;10400;53.198;6.592;2022-12-29T06:10:55;10.48;;;1.85;;
20482;SDS011;10400;53.198;6.592;2022-12-29T06:13:21;10.52;;;1.67;;
20482;SDS011;10400;53.198;6.592;2022-12-29T06:15:50;7.25;;;1.40;;
20482;SDS011;10400;53.198;6.592;2022-12-29T06:18:16;7.95;;;2.03;;
20482;SDS011;10400;53.198;6.592;2022-12-29T06:20:41;12.35;;;1.77;;
20482;SDS011;10400;53.198;6.592;2022-12-29T06:23:07;8.77;;;2.10;;
20482;SDS011;10400;53.198;6.592;2022-12-29T06:25:33;10.23;;;1.70;;
20482;SDS011;10400;53.198;6.592;2022-12-29T06:28:00;10.23;;;1.38;;
20482;SDS011;10400;53.198;6.592;2022-12-29T06:30:27;10.80;;;1.60;;
20482;SDS011;10400;53.198;6.592;2022-12-29T06:32:52;8.30;;;1.88;;
20482;SDS011;10400;53.198;6.592;2022-12-29T06:35:19;9.90;;;1.73;;
20482;SDS011;10400;53.198;6.592;2022-12-29T06:37:47;6.07;;;1.67;;
20482;SDS011;10400;53.198;6.592;2022-12-29T06:40:13;9.63;;;1.90;;
20482;SDS011;10400;53.198;6.592;2022-12-29T06:42:39;12.23;;;2.03;;
20482;SDS011;10400;53.198;6.592;2022-12-29T06:45:04;10.60;;;2.00;;
20482;SDS011;10400;53.198;6.592;2022-12-29T06:47:32;11.13;;;2.28;;
20482;SDS011;10400;53.198;6.592;2022-12-29T06:49:58;12.55;;;1.90;;
20482;SDS011;10400;53.198;6.592;2022-12-29T06:52:24;14.48;;;1.83;;
20482;SDS011;10400;53.198;6.592;2022-12-29T06:54:50;11.30;;;1.80;;
20482;SDS011;10400;53.198;6.592;2022-12-29T06:57:16;10.18;;;1.90;;
20482;SDS011;10400;53.198;6.592;2022-12-29T06:59:41;16.30;;;2.83;;
20482;SDS011;10400;53.198;6.592;2022-12-29T07:02:08;10.68;;;2.08;;
20482;SDS011;10400;53.198;6.592;2022-12-29T07:04:35;14.95;;;3.22;;
20482;SDS011;10400;53.198;6.592;2022-12-29T07:07:01;11.95;;;2.10;;
20482;SDS011;10400;53.198;6.592;2022-12-29T07:09:27;15.68;;;2.00;;
20482;SDS011;10400;53.198;6.592;2022-12-29T07:11:52;11.00;;;2.08;;
20482;SDS011;10400;53.198;6.592;2022-12-29T07:14:18;12.70;;;2.03;;
20482;SDS011;10400;53.198;6.592;2022-12-29T07:16:43;17.52;;;2.33;;
20482;SDS011;10400;53.198;6.592;2022-12-29T07:19:09;14.75;;;2.17;;
20482;SDS011;10400;53.198;6.592;2022-12-29T07:21:35;11.30;;;2.08;;
20482;SDS011;10400;53.198;6.592;2022-12-29T07:24:00;8.65;;;1.92;;
20482;SDS011;10400;53.198;6.592;2022-12-29T07:26:26;9.23;;;1.80;;
20482;SDS011;10400;53.198;6.592;2022-12-29T07:28:51;8.45;;;1.80;;
20482;SDS011;10400;53.198;6.592;2022-12-29T07:31:19;11.43;;;2.28;;
20482;SDS011;10400;53.198;6.592;2022-12-29T07:33:46;6.75;;;1.85;;
20482;SDS011;10400;53.198;6.592;2022-12-29T07:36:12;10.85;;;1.98;;
20482;SDS011;10400;53.198;6.592;2022-12-29T07:38:39;14.02;;;2.00;;
20482;SDS011;10400;53.198;6.592;2022-12-29T07:41:06;12.98;;;2.25;;
20482;SDS011;10400;53.198;6.592;2022-12-29T07:43:31;13.02;;;2.20;;
20482;SDS011;10400;53.198;6.592;2022-12-29T07:45:57;12.77;;;2.17;;
20482;SDS011;10400;53.198;6.592;2022-12-29T07:48:23;11.60;;;2.97;;
20482;SDS011;10400;53.198;6.592;2022-12-29T07:50:48;10.32;;;2.20;;
20482;SDS011;10400;53.198;6.592;2022-12-29T07:53:14;13.27;;;2.20;;
20482;SDS011;10400;53.198;6.592;2022-12-29T07:55:40;8.77;;;1.77;;
20482;SDS011;10400;53.198;6.592;2022-12-29T07:58:06;15.50;;;2.55;;
20482;SDS011;10400;53.198;6.592;2022-12-29T08:00:32;10.82;;;1.60;;
20482;SDS011;10400;53.198;6.592;2022-12-29T08:02:57;9.77;;;2.00;;
20482;SDS011;10400;53.198;6.592;2022-12-29T08:05:23;12.90;;;2.30;;
20482;SDS011;10400;53.198;6.592;2022-12-29T08:07:49;12.52;;;2.22;;
20482;SDS011;10400;53.198;6.592;2022-12-29T08:10:15;12.57;;;2.15;;
20482;SDS011;10400;53.198;6.592;2022-12-29T08:12:41;12.13;;;2.60;;
20482;SDS011;10400;53.198;6.592;2022-12-29T08:15:07;9.82;;;2.08;;
20482;SDS011;10400;53.198;6.592;2022-12-29T08:17:35;13.13;;;2.22;;
20482;SDS011;10400;53.198;6.592;2022-12-29T08:20:00;14.52;;;2.20;;
20482;SDS011;10400;53.198;6.592;2022-12-29T08:22:27;14.32;;;2.60;;
20482;SDS011;10400;53.198;6.592;2022-12-29T08:24:52;15.82;;;2.58;;
20482;SDS011;10400;53.198;6.592;2022-12-29T08:27:18;10.90;;;2.10;;
20482;SDS011;10400;53.198;6.592;2022-12-29T08:29:44;22.23;;;4.05;;
20482;SDS011;10400;53.198;6.592;2022-12-29T08:32:10;11.68;;;1.90;;
20482;SDS011;10400;53.198;6.592;2022-12-29T08:34:36;9.40;;;2.53;;
20482;SDS011;10400;53.198;6.592;2022-12-29T08:37:02;13.38;;;2.40;;
20482;SDS011;10400;53.198;6.592;2022-12-29T08:39:27;14.20;;;3.13;;
20482;SDS011;10400;53.198;6.592;2022-12-29T08:41:53;14.43;;;2.35;;
20482;SDS011;10400;53.198;6.592;2022-12-29T08:44:19;19.95;;;2.75;;
20482;SDS011;10400;53.198;6.592;2022-12-29T08:46:44;16.77;;;2.55;;
20482;SDS011;10400;53.198;6.592;2022-12-29T08:49:10;19.17;;;2.83;;
20482;SDS011;10400;53.198;6.592;2022-12-29T08:51:36;18.83;;;2.92;;
20482;SDS011;10400;53.198;6.592;2022-12-29T08:54:01;15.45;;;3.50;;
20482;SDS011;10400;53.198;6.592;2022-12-29T08:56:27;20.20;;;3.22;;
20482;SDS011;10400;53.198;6.592;2022-12-29T08:58:53;14.35;;;2.90;;
20482;SDS011;10400;53.198;6.592;2022-12-29T09:01:19;20.80;;;3.17;;
20482;SDS011;10400;53.198;6.592;2022-12-29T09:03:45;20.75;;;3.10;;
20482;SDS011;10400;53.198;6.592;2022-12-29T09:06:11;17.70;;;3.30;;
20482;SDS011;10400;53.198;6.592;2022-12-29T09:08:37;17.30;;;3.05;;
20482;SDS011;10400;53.198;6.592;2022-12-29T09:11:07;22.23;;;3.25;;
20482;SDS011;10400;53.198;6.592;2022-12-29T09:13:33;18.15;;;3.10;;
20482;SDS011;10400;53.198;6.592;2022-12-29T09:15:59;23.20;;;3.28;;
20482;SDS011;10400;53.198;6.592;2022-12-29T09:18:25;17.33;;;3.20;;
20482;SDS011;10400;53.198;6.592;2022-12-29T09:20:55;17.00;;;2.97;;
20482;SDS011;10400;53.198;6.592;2022-12-29T09:23:22;16.88;;;3.05;;
20482;SDS011;10400;53.198;6.592;2022-12-29T09:25:48;21.92;;;3.13;;
20482;SDS011;10400;53.198;6.592;2022-12-29T09:28:14;16.35;;;3.08;;
20482;SDS011;10400;53.198;6.592;2022-12-29T09:30:39;15.65;;;2.65;;
20482;SDS011;10400;53.198;6.592;2022-12-29T09:33:06;11.88;;;2.47;;
20482;SDS011;10400;53.198;6.592;2022-12-29T09:35:32;15.38;;;2.80;;
20482;SDS011;10400;53.198;6.592;2022-12-29T09:37:57;16.85;;;2.63;;
20482;SDS011;10400;53.198;6.592;2022-12-29T09:40:27;14.20;;;3.15;;
20482;SDS011;10400;53.198;6.592;2022-12-29T09:46:26;10.98;;;2.10;;
20482;SDS011;10400;53.198;6.592;2022-12-29T09:48:41;14.98;;;3.00;;
20482;SDS011;10400;53.198;6.592;2022-12-29T09:51:11;12.32;;;2.25;;
20482;SDS011;10400;53.198;6.592;2022-12-29T09:56:47;10.70;;;2.40;;
20482;SDS011;10400;53.198;6.592;2022-12-29T09:59:15;13.50;;;2.33;;
20482;SDS011;10400;53.198;6.592;2022-12-29T10:01:46;10.98;;;2.17;;
20482;SDS011;10400;53.198;6.592;2022-12-29T10:04:26;12.25;;;2.03;;
20482;SDS011;10400;53.198;6.592;2022-12-29T10:07:14;10.02;;;2.22;;
20482;SDS011;10400;53.198;6.592;2022-12-29T10:18:03;14.90;;;2.50;;
20482;SDS011;10400;53.198;6.592;2022-12-29T10:23:39;16.95;;;2.00;;
20482;SDS011;10400;53.198;6.592;2022-12-29T10:26:11;9.18;;;2.28;;
20482;SDS011;10400;53.198;6.592;2022-12-29T10:28:42;9.75;;;2.33;;
20482;SDS011;10400;53.198;6.592;2022-12-29T10:31:14;9.40;;;1.80;;
20482;SDS011;10400;53.198;6.592;2022-12-29T10:33:44;11.38;;;2.20;;
20482;SDS011;10400;53.198;6.592;2022-12-29T10:36:18;10.07;;;1.88;;
20482;SDS011;10400;53.198;6.592;2022-12-29T10:41:53;9.95;;;2.03;;
20482;SDS011;10400;53.198;6.592;2022-12-29T10:44:53;8.38;;;1.83;;
20482;SDS011;10400;53.198;6.592;2022-12-29T10:47:22;8.13;;;1.98;;
20482;SDS011;10400;53.198;6.592;2022-12-29T10:49:51;13.30;;;2.33;;
20482;SDS011;10400;53.198;6.592;2022-12-29T10:52:18;13.90;;;2.63;;
20482;SDS011;10400;53.198;6.592;2022-12-29T10:54:47;14.52;;;2.22;;
20482;SDS011;10400;53.198;6.592;2022-12-29T10:57:54;11.60;;;2.17;;
20482;SDS011;10400;53.198;6.592;2022-12-29T11:00:15;18.13;;;2.90;;
20482;SDS011;10400;53.198;6.592;2022-12-29T11:05:52;11.70;;;2.30;;
20482;SDS011;10400;53.198;6.592;2022-12-29T11:08:17;16.52;;;2.65;;
20482;SDS011;10400;53.198;6.592;2022-12-29T11:10:46;13.57;;;3.28;;
20482;SDS011;10400;53.198;6.592;2022-12-29T11:13:33;18.17;;;3.15;;
20482;SDS011;10400;53.198;6.592;2022-12-29T11:16:00;15.50;;;3.10;;
20482;SDS011;10400;53.198;6.592;2022-12-29T11:18:36;15.20;;;2.90;;
20482;SDS011;10400;53.198;6.592;2022-12-29T11:21:03;15.23;;;2.78;;
20482;SDS011;10400;53.198;6.592;2022-12-29T11:23:41;15.52;;;3.08;;
20482;SDS011;10400;53.198;6.592;2022-12-29T11:28:42;20.30;;;3.78;;
20482;SDS011;10400;53.198;6.592;2022-12-29T11:31:09;17.50;;;2.90;;
20482;SDS011;10400;53.198;6.592;2022-12-29T11:33:37;22.50;;;3.83;;
20482;SDS011;10400;53.198;6.592;2022-12-29T11:36:12;18.58;;;3.22;;
20482;SDS011;10400;53.198;6.592;2022-12-29T11:38:42;14.38;;;2.90;;
20482;SDS011;10400;53.198;6.592;2022-12-29T11:41:13;16.55;;;3.78;;
20482;SDS011;10400;53.198;6.592;2022-12-29T11:43:55;16.60;;;2.92;;
20482;SDS011;10400;53.198;6.592;2022-12-29T11:46:28;17.92;;;3.63;;
20482;SDS011;10400;53.198;6.592;2022-12-29T11:48:59;17.08;;;3.60;;
20482;SDS011;10400;53.198;6.592;2022-12-29T11:54:29;20.98;;;3.63;;
20482;SDS011;10400;53.198;6.592;2022-12-29T11:56:57;25.23;;;3.95;;
20482;SDS011;10400;53.198;6.592;2022-12-29T12:00:10;17.17;;;3.47;;
20482;SDS011;10400;53.198;6.592;2022-12-29T12:04:45;17.27;;;4.03;;
20482;SDS011;10400;53.198;6.592;2022-12-29T12:07:24;24.98;;;3.80;;
20482;SDS011;10400;53.198;6.592;2022-12-29T12:10:01;26.17;;;4.43;;
20482;SDS011;10400;53.198;6.592;2022-12-29T12:12:32;27.67;;;4.18;;
20482;SDS011;10400;53.198;6.592;2022-12-29T12:15:29;25.60;;;4.07;;
20482;SDS011;10400;53.198;6.592;2022-12-29T12:18:08;21.05;;;3.42;;
20482;SDS011;10400;53.198;6.592;2022-12-29T12:23:38;21.35;;;3.95;;
20482;SDS011;10400;53.198;6.592;2022-12-29T12:26:28;24.15;;;3.22;;
20482;SDS011;10400;53.198;6.592;2022-12-29T12:29:01;25.08;;;3.78;;
20482;SDS011;10400;53.198;6.592;2022-12-29T12:35:01;18.17;;;2.85;;
20482;SDS011;10400;53.198;6.592;2022-12-29T12:49:06;23.33;;;3.78;;
20482;SDS011;10400;53.198;6.592;2022-12-29T13:00:16;13.20;;;2.88;;
20482;SDS011;10400;53.198;6.592;2022-12-29T13:24:34;13.60;;;1.90;;
20482;SDS011;10400;53.198;6.592;2022-12-29T13:27:30;8.15;;;1.85;;
20482;SDS011;10400;53.198;6.592;2022-12-29T13:41:18;11.75;;;1.75;;
20482;SDS011;10400;53.198;6.592;2022-12-29T13:44:03;12.63;;;2.38;;
20482;SDS011;10400;53.198;6.592;2022-12-29T13:46:42;8.60;;;2.10;;
20482;SDS011;10400;53.198;6.592;2022-12-29T13:49:20;11.55;;;2.30;;
20482;SDS011;10400;53.198;6.592;2022-12-29T13:51:50;10.80;;;2.08;;
20482;SDS011;10400;53.198;6.592;2022-12-29T13:54:27;11.10;;;2.15;;
20482;SDS011;10400;53.198;6.592;2022-12-29T13:57:14;15.48;;;3.03;;
20482;SDS011;10400;53.198;6.592;2022-12-29T14:00:02;8.57;;;2.75;;
20482;SDS011;10400;53.198;6.592;2022-12-29T14:07:45;13.82;;;2.17;;
20482;SDS011;10400;53.198;6.592;2022-12-29T14:15:42;11.00;;;2.20;;
20482;SDS011;10400;53.198;6.592;2022-12-29T14:20:50;10.88;;;2.10;;
20482;SDS011;10400;53.198;6.592;2022-12-29T14:23:26;10.18;;;2.00;;
20482;SDS011;10400;53.198;6.592;2022-12-29T14:28:31;6.03;;;1.60;;
20482;SDS011;10400;53.198;6.592;2022-12-29T14:30:59;9.40;;;1.88;;
20482;SDS011;10400;53.198;6.592;2022-12-29T14:33:33;15.27;;;2.08;;
20482;SDS011;10400;53.198;6.592;2022-12-29T14:36:18;12.05;;;2.22;;
20482;SDS011;10400;53.198;6.592;2022-12-29T14:38:51;8.55;;;1.98;;
20482;SDS011;10400;53.198;6.592;2022-12-29T14:43:52;10.07;;;2.20;;
20482;SDS011;10400;53.198;6.592;2022-12-29T14:46:20;10.45;;;2.03;;
20482;SDS011;10400;53.198;6.592;2022-12-29T14:48:46;15.35;;;2.35;;
20482;SDS011;10400;53.198;6.592;2022-12-29T14:51:20;16.88;;;2.30;;
20482;SDS011;10400;53.198;6.592;2022-12-29T14:53:54;14.27;;;2.33;;
20482;SDS011;10400;53.198;6.592;2022-12-29T14:56:20;14.55;;;2.50;;
20482;SDS011;10400;53.198;6.592;2022-12-29T14:58:52;17.38;;;2.35;;
20482;SDS011;10400;53.198;6.592;2022-12-29T15:01:33;14.20;;;2.70;;
20482;SDS011;10400;53.198;6.592;2022-12-29T15:04:40;13.93;;;2.75;;
20482;SDS011;10400;53.198;6.592;2022-12-29T15:07:00;15.77;;;2.97;;
20482;SDS011;10400;53.198;6.592;2022-12-29T15:09:36;11.55;;;2.15;;
20482;SDS011;10400;53.198;6.592;2022-12-29T15:14:56;15.38;;;2.38;;
20482;SDS011;10400;53.198;6.592;2022-12-29T15:17:30;11.98;;;2.42;;
20482;SDS011;10400;53.198;6.592;2022-12-29T15:20:13;12.38;;;2.28;;
20482;SDS011;10400;53.198;6.592;2022-12-29T15:22:48;14.05;;;2.70;;
20482;SDS011;10400;53.198;6.592;2022-12-29T15:25:18;10.82;;;1.73;;
20482;SDS011;10400;53.198;6.592;2022-12-29T15:27:51;15.57;;;2.65;;
20482;SDS011;10400;53.198;6.592;2022-12-29T15:30:27;11.13;;;2.30;;
20482;SDS011;10400;53.198;6.592;2022-12-29T15:32:52;15.18;;;2.67;;
20482;SDS011;10400;53.198;6.592;2022-12-29T15:35:26;15.68;;;2.40;;
20482;SDS011;10400;53.198;6.592;2022-12-29T15:37:55;12.10;;;2.13;;
20482;SDS011;10400;53.198;6.592;2022-12-29T15:40:25;13.15;;;2.13;;
20482;SDS011;10400;53.198;6.592;2022-12-29T15:45:23;18.75;;;2.58;;
20482;SDS011;10400;53.198;6.592;2022-12-29T15:47:55;15.52;;;2.30;;
20482;SDS011;10400;53.198;6.592;2022-12-29T15:50:31;16.65;;;2.30;;
20482;SDS011;10400;53.198;6.592;2022-12-29T15:52:59;14.73;;;2.40;;
20482;SDS011;10400;53.198;6.592;2022-12-29T15:57:59;13.20;;;2.15;;
20482;SDS011;10400;53.198;6.592;2022-12-29T16:00:28;18.08;;;2.90;;
20482;SDS011;10400;53.198;6.592;2022-12-29T16:02:55;9.70;;;2.00;;
20482;SDS011;10400;53.198;6.592;2022-12-29T16:05:24;13.15;;;2.53;;
20482;SDS011;10400;53.198;6.592;2022-12-29T16:07:58;9.32;;;2.10;;
20482;SDS011;10400;53.198;6.592;2022-12-29T16:10:38;12.77;;;2.45;;
20482;SDS011;10400;53.198;6.592;2022-12-29T16:13:17;13.02;;;2.00;;
20482;SDS011;10400;53.198;6.592;2022-12-29T16:15:49;13.80;;;2.10;;
20482;SDS011;10400;53.198;6.592;2022-12-29T16:18:22;11.77;;;2.47;;
20482;SDS011;10400;53.198;6.592;2022-12-29T16:20:50;11.68;;;2.60;;
20482;SDS011;10400;53.198;6.592;2022-12-29T16:23:18;15.27;;;3.28;;
20482;SDS011;10400;53.198;6.592;2022-12-29T16:25:47;12.93;;;3.15;;
20482;SDS011;10400;53.198;6.592;2022-12-29T16:28:15;15.48;;;3.58;;
20482;SDS011;10400;53.198;6.592;2022-12-29T16:30:44;14.35;;;1.98;;
20482;SDS011;10400;53.198;6.592;2022-12-29T16:33:29;10.77;;;2.10;;
20482;SDS011;10400;53.198;6.592;2022-12-29T16:39:21;6.95;;;1.48;;
20482;SDS011;10400;53.198;6.592;2022-12-29T16:41:52;5.32;;;1.20;;
20482;SDS011;10400;53.198;6.592;2022-12-29T16:44:19;9.38;;;1.77;;
20482;SDS011;10400;53.198;6.592;2022-12-29T16:49:36;7.13;;;1.10;;
20482;SDS011;10400;53.198;6.592;2022-12-29T16:52:13;4.65;;;1.20;;
20482;SDS011;10400;53.198;6.592;2022-12-29T16:54:48;5.75;;;1.23;;
20482;SDS011;10400;53.198;6.592;2022-12-29T16:57:35;3.42;;;1.27;;
20482;SDS011;10400;53.198;6.592;2022-12-29T17:00:06;9.75;;;1.48;;
20482;SDS011;10400;53.198;6.592;2022-12-29T17:02:33;2.20;;;1.00;;
20482;SDS011;10400;53.198;6.592;2022-12-29T17:05:13;5.32;;;1.65;;
20482;SDS011;10400;53.198;6.592;2022-12-29T17:07:39;7.32;;;1.40;;
20482;SDS011;10400;53.198;6.592;2022-12-29T17:10:05;6.78;;;1.38;;
20482;SDS011;10400;53.198;6.592;2022-12-29T17:12:31;10.00;;;3.00;;
20482;SDS011;10400;53.198;6.592;2022-12-29T17:17:48;4.72;;;2.13;;
20482;SDS011;10400;53.198;6.592;2022-12-29T17:20:26;9.13;;;2.65;;
20482;SDS011;10400;53.198;6.592;2022-12-29T17:22:53;8.23;;;1.92;;
20482;SDS011;10400;53.198;6.592;2022-12-29T17:25:40;11.57;;;2.40;;
20482;SDS011;10400;53.198;6.592;2022-12-29T17:28:12;8.05;;;2.10;;
20482;SDS011;10400;53.198;6.592;2022-12-29T17:30:49;11.27;;;2.22;;
20482;SDS011;10400;53.198;6.592;2022-12-29T17:33:18;9.80;;;2.42;;